Time;durP1;ratioP1;P1;durP2;ratioP2;P2;SDS_P1;SDS_P2;PMS_P1;PMS_P2;Temp;Humidity;BMP_temperature;BMP_pressure;BME280_temperature;BME280_humidity;BME280_pressure;Samples;Min_cycle;Max_cycle;Signal;HPM_P1;HPM_P2
2021/05/05 00:01:59;;;;;;;1.50;1.20;;;7.60;98.20;;;;;;5000236;28;20511;-79
2021/05/05 00:04:26;;;;;;;1.50;1.10;;;7.50;98.20;;;;;;5007310;28;20908;-79
2021/05/05 00:06:54;;;;;;;1.50;1.20;;;7.50;98.20;;;;;;5002141;28;20483;-79
2021/05/05 00:09:20;;;;;;;1.50;1.20;;;7.50;98.20;;;;;;5008882;28;20461;-81
2021/05/05 00:11:47;;;;;;;1.50;1.10;;;7.50;98.20;;;;;;5004356;28;20471;-79
2021/05/05 00:14:15;;;;;;;1.50;1.20;;;7.40;98.20;;;;;;5011465;28;21153;-77
2021/05/05 00:16:42;;;;;;;1.50;1.10;;;7.40;98.20;;;;;;5002421;28;20498;-78
2021/05/05 00:19:08;;;;;;;1.50;1.20;;;7.40;98.20;;;;;;5007212;28;21096;-77
2021/05/05 00:21:35;;;;;;;1.50;1.20;;;7.40;98.20;;;;;;5001311;28;20976;-78
2021/05/05 00:24:01;;;;;;;1.50;1.17;;;7.30;98.20;;;;;;5011573;28;20495;-78
2021/05/05 00:26:28;;;;;;;1.50;1.20;;;7.30;98.20;;;;;;5002542;28;20482;-78
2021/05/05 00:28:54;;;;;;;1.50;1.30;;;7.30;98.20;;;;;;5014370;28;20461;-79
2021/05/05 00:31:20;;;;;;;1.50;1.13;;;7.30;98.20;;;;;;4999560;28;20594;-77
2021/05/05 00:33:47;;;;;;;1.50;1.20;;;7.20;98.20;;;;;;5015810;28;20798;-78
2021/05/05 00:36:14;;;;;;;1.50;1.20;;;7.30;98.20;;;;;;5000412;28;20625;-77
2021/05/05 00:38:41;;;;;;;1.50;1.20;;;7.20;98.20;;;;;;5016640;28;20468;-78
2021/05/05 00:41:07;;;;;;;1.50;1.30;;;7.20;98.20;;;;;;4997817;28;20479;-77
2021/05/05 00:43:34;;;;;;;1.50;1.20;;;7.10;98.20;;;;;;5017016;28;20979;-80
2021/05/05 00:46:00;;;;;;;1.50;1.30;;;7.10;98.20;;;;;;5002440;28;20492;-78
2021/05/05 00:48:27;;;;;;;1.50;1.20;;;7.10;98.20;;;;;;5014847;28;20510;-78
2021/05/05 00:50:55;;;;;;;1.50;1.20;;;7.10;98.20;;;;;;4997473;28;20474;-77
2021/05/05 00:53:21;;;;;;;1.50;1.20;;;7.00;98.20;;;;;;5025162;28;20941;-79
2021/05/05 00:55:48;;;;;;;1.50;1.13;;;7.00;98.20;;;;;;5006353;28;20861;-77
2021/05/05 00:58:15;;;;;;;1.57;1.30;;;6.90;98.20;;;;;;5021934;28;20482;-78
2021/05/05 01:00:42;;;;;;;1.57;1.30;;;6.90;98.20;;;;;;5008625;28;20520;-79
2021/05/05 01:03:08;;;;;;;1.50;1.20;;;6.90;98.20;;;;;;5012292;28;20852;-79
2021/05/05 01:05:34;;;;;;;1.50;1.30;;;6.90;98.20;;;;;;5010373;28;20486;-78
2021/05/05 01:08:02;;;;;;;1.50;1.13;;;6.90;98.20;;;;;;5014222;28;20480;-77
2021/05/05 01:10:29;;;;;;;1.50;1.20;;;6.80;98.20;;;;;;5013810;28;20460;-79
2021/05/05 01:12:56;;;;;;;1.50;1.20;;;6.80;98.20;;;;;;5012019;28;20476;-79
2021/05/05 01:15:23;;;;;;;1.50;1.20;;;6.80;98.20;;;;;;5010801;28;21019;-78
2021/05/05 01:17:49;;;;;;;1.57;1.30;;;6.80;98.20;;;;;;5014469;28;20486;-78
2021/05/05 01:20:16;;;;;;;1.50;1.30;;;6.80;98.20;;;;;;5012394;28;20483;-76
2021/05/05 01:22:43;;;;;;;1.50;1.20;;;6.80;98.20;;;;;;5007875;28;20491;-78
2021/05/05 01:25:12;;;;;;;1.60;1.30;;;6.80;98.20;;;;;;5009093;28;20476;-78
2021/05/05 01:27:40;;;;;;;1.50;1.20;;;6.80;98.20;;;;;;5015239;28;20479;-78
2021/05/05 01:30:08;;;;;;;1.53;1.30;;;6.90;98.20;;;;;;5014669;28;20468;-78
2021/05/05 01:32:35;;;;;;;1.50;1.20;;;6.90;98.20;;;;;;5011568;28;20546;-78
2021/05/05 01:35:03;;;;;;;1.50;1.30;;;6.90;98.20;;;;;;5009039;28;20864;-77
2021/05/05 01:37:30;;;;;;;1.57;1.20;;;6.90;98.20;;;;;;5008817;28;20878;-78
2021/05/05 01:39:57;;;;;;;1.50;1.20;;;6.90;98.20;;;;;;5004152;28;20495;-78
2021/05/05 01:42:23;;;;;;;1.50;1.30;;;6.90;98.20;;;;;;4991434;28;20539;-78
2021/05/05 01:44:50;;;;;;;1.50;1.20;;;6.90;98.20;;;;;;5008855;28;20476;-78
2021/05/05 01:47:16;;;;;;;1.50;1.20;;;6.80;98.20;;;;;;5008725;28;20479;-78
2021/05/05 01:49:45;;;;;;;1.50;1.20;;;6.80;98.20;;;;;;5010818;28;20471;-77
2021/05/05 01:52:13;;;;;;;1.50;1.20;;;6.80;98.20;;;;;;5004376;28;20479;-78
2021/05/05 01:54:39;;;;;;;1.50;1.20;;;6.80;98.20;;;;;;5011235;28;20491;-77
2021/05/05 01:57:24;;;;;;;1.50;1.20;;;6.90;98.20;;;;;;5006059;28;20494;-78
2021/05/05 01:59:51;;;;;;;1.60;1.40;;;6.90;98.20;;;;;;5008366;28;20470;-78
2021/05/05 02:02:17;;;;;;;1.50;1.30;;;6.90;98.20;;;;;;5013519;28;20479;-78
2021/05/05 02:04:44;;;;;;;1.50;1.20;;;6.90;98.20;;;;;;5001826;28;20489;-78
2021/05/05 02:07:10;;;;;;;1.50;1.20;;;6.90;98.20;;;;;;5010332;28;20479;-78
2021/05/05 02:09:36;;;;;;;1.50;1.20;;;6.90;98.20;;;;;;5007234;28;20472;-77
2021/05/05 02:12:03;;;;;;;1.50;1.30;;;6.80;98.20;;;;;;5002130;28;20491;-78
2021/05/05 02:14:30;;;;;;;1.50;1.20;;;6.80;98.20;;;;;;5009275;28;20856;-78
2021/05/05 02:16:58;;;;;;;1.50;1.20;;;6.80;98.20;;;;;;4989073;28;20485;-78
2021/05/05 02:19:24;;;;;;;1.50;1.30;;;6.80;98.20;;;;;;5007769;28;20458;-78
2021/05/05 02:21:51;;;;;;;1.50;1.30;;;6.70;98.20;;;;;;4999033;28;20501;-78
2021/05/05 02:24:17;;;;;;;1.50;1.30;;;6.70;98.20;;;;;;5003089;28;20991;-80
2021/05/05 02:26:43;;;;;;;1.50;1.23;;;6.70;98.20;;;;;;4997235;28;20488;-78
2021/05/05 02:29:10;;;;;;;1.50;1.20;;;6.60;98.20;;;;;;5014187;28;20460;-79
2021/05/05 02:31:37;;;;;;;1.50;1.20;;;6.60;98.20;;;;;;4998199;28;20492;-81
2021/05/05 02:34:04;;;;;;;1.50;1.23;;;6.60;98.20;;;;;;5009185;28;20472;-78
2021/05/05 02:36:31;;;;;;;1.50;1.20;;;6.50;98.20;;;;;;5000697;28;20533;-76
2021/05/05 02:38:58;;;;;;;1.50;1.30;;;6.50;98.20;;;;;;5007897;28;20471;-78
2021/05/05 02:41:24;;;;;;;1.53;1.27;;;6.50;98.20;;;;;;4992203;28;20823;-79
2021/05/05 02:43:51;;;;;;;1.50;1.20;;;6.50;98.20;;;;;;5002629;28;20488;-78
2021/05/05 02:46:17;;;;;;;1.50;1.20;;;6.40;98.20;;;;;;5001836;28;20500;-79
2021/05/05 02:48:45;;;;;;;1.50;1.20;;;6.40;98.20;;;;;;5009733;28;20465;-78
2021/05/05 02:51:11;;;;;;;1.60;1.30;;;6.40;98.20;;;;;;5004688;28;20509;-78
2021/05/05 02:53:37;;;;;;;1.50;1.20;;;6.30;98.20;;;;;;5017584;28;20480;-78
2021/05/05 02:56:04;;;;;;;1.53;1.30;;;6.30;98.20;;;;;;4995013;28;20487;-78
2021/05/05 02:58:30;;;;;;;1.50;1.30;;;6.30;98.20;;;;;;5017301;28;20471;-78
2021/05/05 03:00:57;;;;;;;1.57;1.33;;;6.30;98.20;;;;;;4994425;28;20468;-78
2021/05/05 03:03:23;;;;;;;1.50;1.20;;;6.30;98.20;;;;;;5012873;28;20492;-78
2021/05/05 03:05:50;;;;;;;1.57;1.20;;;6.30;98.20;;;;;;4996917;28;20480;-80
2021/05/05 03:08:17;;;;;;;1.53;1.30;;;6.30;98.20;;;;;;5019114;28;20963;-78
2021/05/05 03:10:44;;;;;;;1.50;1.20;;;6.30;98.20;;;;;;5004309;28;20862;-78
2021/05/05 03:13:10;;;;;;;1.50;1.27;;;6.20;98.20;;;;;;4994046;28;20476;-78
2021/05/05 03:15:37;;;;;;;1.57;1.30;;;6.30;98.20;;;;;;5005332;28;20495;-78
2021/05/05 03:18:03;;;;;;;1.57;1.33;;;6.20;98.20;;;;;;5004278;28;21055;-78
2021/05/05 03:20:30;;;;;;;1.50;1.27;;;6.20;98.20;;;;;;5008917;28;20460;-80
2021/05/05 03:22:57;;;;;;;1.50;1.30;;;6.20;98.20;;;;;;5008233;28;20503;-79
2021/05/05 03:25:23;;;;;;;1.50;1.20;;;6.20;98.20;;;;;;5005972;28;20814;-79
2021/05/05 03:27:49;;;;;;;1.60;1.30;;;6.20;98.20;;;;;;5003920;28;20779;-79
2021/05/05 03:30:17;;;;;;;1.50;1.40;;;6.20;98.20;;;;;;4993278;28;20972;-78
2021/05/05 03:32:43;;;;;;;1.57;1.20;;;6.30;98.20;;;;;;5009254;28;20834;-79
2021/05/05 03:35:10;;;;;;;1.60;1.50;;;6.30;98.20;;;;;;5002515;28;20837;-79
2021/05/05 03:37:37;;;;;;;1.50;1.30;;;6.30;98.20;;;;;;5007786;28;20545;-79
2021/05/05 03:40:06;;;;;;;1.50;1.20;;;6.20;98.20;;;;;;5003761;28;20539;-79
2021/05/05 03:42:32;;;;;;;1.53;1.37;;;6.20;98.20;;;;;;4985268;28;20550;-79
2021/05/05 03:44:59;;;;;;;1.50;1.20;;;6.20;98.20;;;;;;5005432;28;20723;-79
2021/05/05 03:47:25;;;;;;;1.53;1.30;;;6.20;98.20;;;;;;4982438;28;20495;-79
2021/05/05 03:49:52;;;;;;;1.57;1.27;;;6.20;98.20;;;;;;4995507;28;20471;-78
2021/05/05 03:52:18;;;;;;;1.53;1.23;;;6.20;98.20;;;;;;5000913;28;20825;-80
2021/05/05 03:54:44;;;;;;;1.50;1.20;;;6.20;98.20;;;;;;5002185;28;20481;-79
2021/05/05 03:57:12;;;;;;;1.50;1.20;;;6.10;98.20;;;;;;5002478;28;20475;-78
2021/05/05 03:59:38;;;;;;;1.50;1.20;;;6.10;98.20;;;;;;5006809;28;20478;-78
2021/05/05 04:02:04;;;;;;;1.60;1.40;;;6.10;98.20;;;;;;5008370;28;20596;-77
2021/05/05 04:04:31;;;;;;;1.57;1.30;;;6.10;98.20;;;;;;5008707;28;20562;-79
2021/05/05 04:06:57;;;;;;;1.50;1.20;;;6.10;98.20;;;;;;5005711;28;20483;-79
2021/05/05 04:09:24;;;;;;;1.50;1.30;;;6.10;98.20;;;;;;5008888;28;20464;-77
2021/05/05 04:11:50;;;;;;;1.60;1.30;;;6.10;98.20;;;;;;5003862;28;20483;-78
2021/05/05 04:14:18;;;;;;;1.50;1.30;;;6.10;98.20;;;;;;5006646;28;20594;-77
2021/05/05 04:16:44;;;;;;;1.50;1.20;;;6.10;98.20;;;;;;5004547;28;20522;-79
2021/05/05 04:19:10;;;;;;;1.57;1.30;;;6.10;98.20;;;;;;5016037;28;20471;-79
2021/05/05 04:21:37;;;;;;;1.50;1.20;;;6.10;98.20;;;;;;4997977;28;20492;-79
2021/05/05 04:24:04;;;;;;;1.50;1.20;;;6.10;98.20;;;;;;5010772;28;20546;-78
2021/05/05 04:26:30;;;;;;;1.50;1.20;;;6.10;98.20;;;;;;4994590;28;20479;-78
2021/05/05 04:28:56;;;;;;;1.50;1.30;;;6.10;98.20;;;;;;5014431;28;20595;-77
2021/05/05 04:31:24;;;;;;;1.60;1.40;;;6.10;98.20;;;;;;4998525;28;20479;-79
2021/05/05 04:33:50;;;;;;;1.50;1.20;;;6.10;98.20;;;;;;5017645;28;21062;-79
2021/05/05 04:36:16;;;;;;;1.50;1.30;;;6.10;98.20;;;;;;5000102;28;20885;-79
2021/05/05 04:38:43;;;;;;;1.50;1.20;;;6.20;98.20;;;;;;5012327;28;20485;-80
2021/05/05 04:41:10;;;;;;;1.50;1.27;;;6.20;98.20;;;;;;4999505;28;20490;-78
2021/05/05 04:43:36;;;;;;;1.50;1.20;;;6.30;98.20;;;;;;5002581;28;20873;-80
2021/05/05 04:46:02;;;;;;;1.50;1.20;;;6.30;98.20;;;;;;4997270;28;21017;-79
2021/05/05 04:48:30;;;;;;;1.50;1.20;;;6.30;98.20;;;;;;5006844;28;20469;-78
2021/05/05 04:50:56;;;;;;;1.50;1.30;;;6.40;98.20;;;;;;4988173;28;20492;-77
2021/05/05 04:53:23;;;;;;;1.53;1.23;;;6.40;98.20;;;;;;5008334;28;20543;-79
2021/05/05 04:55:50;;;;;;;1.50;1.20;;;6.50;98.20;;;;;;4993439;28;20484;-79
2021/05/05 04:58:16;;;;;;;1.50;1.20;;;6.60;98.20;;;;;;5011709;28;20469;-78
2021/05/05 05:00:43;;;;;;;1.50;1.20;;;6.60;98.20;;;;;;5005719;28;20460;-77
2021/05/05 05:03:09;;;;;;;1.50;1.10;;;6.70;98.20;;;;;;5006602;28;20484;-77
2021/05/05 05:05:36;;;;;;;1.50;1.27;;;6.70;98.20;;;;;;5006178;28;20492;-77
2021/05/05 05:08:03;;;;;;;1.60;1.30;;;6.70;98.20;;;;;;5005627;28;20495;-81
2021/05/05 05:10:30;;;;;;;1.50;1.20;;;6.70;98.20;;;;;;5009320;28;20886;-77
2021/05/05 05:12:56;;;;;;;1.50;1.20;;;6.80;98.20;;;;;;5002826;28;20672;-78
2021/05/05 05:15:22;;;;;;;1.50;1.30;;;6.80;98.20;;;;;;5004906;28;20492;-79
2021/05/05 05:17:49;;;;;;;1.53;1.20;;;6.90;98.20;;;;;;5004786;28;20966;-79
2021/05/05 05:20:15;;;;;;;1.50;1.20;;;6.90;98.20;;;;;;5003183;28;20468;-78
2021/05/05 05:22:42;;;;;;;1.50;1.20;;;6.90;98.20;;;;;;5012507;28;20479;-78
2021/05/05 05:25:10;;;;;;;1.60;1.30;;;6.90;98.20;;;;;;5008529;28;20637;-78
2021/05/05 05:27:37;;;;;;;1.77;1.67;;;7.00;98.20;;;;;;5003822;28;20483;-78
2021/05/05 05:30:05;;;;;;;1.50;1.20;;;7.00;98.20;;;;;;5001529;28;20848;-78
2021/05/05 05:32:32;;;;;;;1.50;1.20;;;7.10;98.20;;;;;;4986645;28;20812;-78
2021/05/05 05:34:58;;;;;;;1.50;1.20;;;7.10;98.20;;;;;;5004203;28;20538;-78
2021/05/05 05:37:24;;;;;;;1.50;1.20;;;7.10;98.20;;;;;;5006497;28;20483;-78
2021/05/05 05:39:52;;;;;;;1.50;1.20;;;7.20;98.20;;;;;;5006322;28;20472;-78
2021/05/05 05:42:18;;;;;;;1.53;1.30;;;7.30;98.20;;;;;;5004414;28;20848;-81
2021/05/05 05:44:44;;;;;;;1.50;1.20;;;7.50;98.20;;;;;;5012676;28;20998;-78
2021/05/05 05:47:11;;;;;;;1.60;1.30;;;7.60;98.20;;;;;;5010812;28;20552;-76
2021/05/05 05:49:37;;;;;;;1.50;1.20;;;7.60;98.20;;;;;;5009647;28;20567;-81
2021/05/05 05:52:04;;;;;;;1.50;1.10;;;7.70;98.20;;;;;;5008821;28;20491;-77
2021/05/05 05:54:30;;;;;;;1.50;1.10;;;7.70;98.20;;;;;;5011476;28;20508;-79
2021/05/05 05:56:57;;;;;;;1.57;1.20;;;7.80;98.20;;;;;;5003836;28;20484;-79
2021/05/05 05:59:24;;;;;;;1.53;1.30;;;7.80;98.20;;;;;;5012129;28;21533;-79
2021/05/05 06:01:50;;;;;;;1.53;1.20;;;7.90;98.20;;;;;;4996886;28;20484;-78
2021/05/05 06:04:17;;;;;;;1.50;1.10;;;8.00;98.20;;;;;;5009346;28;20581;-79
2021/05/05 06:06:43;;;;;;;1.57;1.20;;;8.10;98.20;;;;;;5002073;28;20483;-78
2021/05/05 06:09:10;;;;;;;1.50;1.20;;;8.20;98.20;;;;;;5005655;28;20547;-79
2021/05/05 06:11:36;;;;;;;1.50;1.20;;;8.20;97.80;;;;;;4999186;28;20482;-77
2021/05/05 06:14:05;;;;;;;1.50;1.10;;;8.30;97.80;;;;;;5018110;28;20452;-79
2021/05/05 06:16:31;;;;;;;1.50;1.10;;;8.30;98.00;;;;;;4992147;28;21044;-79
2021/05/05 06:18:58;;;;;;;1.50;1.20;;;8.40;97.90;;;;;;5010535;28;20460;-79
2021/05/05 06:21:24;;;;;;;1.50;1.20;;;8.50;97.50;;;;;;5000230;28;20474;-80
2021/05/05 06:23:50;;;;;;;1.50;1.10;;;8.70;98.00;;;;;;5006042;28;20493;-80
2021/05/05 06:26:17;;;;;;;1.50;1.10;;;8.90;97.10;;;;;;4997610;28;20545;-80
2021/05/05 06:28:43;;;;;;;1.50;1.10;;;9.00;96.10;;;;;;5017159;28;20465;-79
2021/05/05 06:31:10;;;;;;;1.53;1.10;;;9.20;95.00;;;;;;4996977;28;20495;-78
2021/05/05 06:33:36;;;;;;;1.50;1.10;;;9.20;95.00;;;;;;5019824;28;20575;-81
2021/05/05 06:36:04;;;;;;;1.50;1.10;;;9.20;95.00;;;;;;4997540;28;20902;-77
2021/05/05 06:38:30;;;;;;;1.50;1.10;;;9.20;94.60;;;;;;5023144;28;20475;-77
2021/05/05 06:40:56;;;;;;;1.53;1.20;;;9.20;94.50;;;;;;4996557;28;21222;-78
2021/05/05 06:43:23;;;;;;;1.50;1.10;;;9.20;94.60;;;;;;5017209;28;20481;-79
2021/05/05 06:45:49;;;;;;;1.50;1.10;;;9.20;94.30;;;;;;4999230;28;20487;-78
2021/05/05 06:48:16;;;;;;;1.53;1.20;;;9.20;94.30;;;;;;5017335;28;20865;-79
2021/05/05 06:50:45;;;;;;;1.50;1.10;;;9.20;94.50;;;;;;5001280;28;20920;-79
2021/05/05 06:53:12;;;;;;;1.50;1.10;;;9.30;94.50;;;;;;4996233;28;20464;-78
2021/05/05 06:55:41;;;;;;;1.50;1.13;;;9.40;94.40;;;;;;5010954;28;20991;-79
2021/05/05 06:58:07;;;;;;;1.50;1.10;;;9.50;93.30;;;;;;5013960;28;20480;-80
2021/05/05 07:00:33;;;;;;;1.50;1.10;;;9.90;93.10;;;;;;5004709;28;21004;-79
2021/05/05 07:02:59;;;;;;;1.50;1.10;;;10.00;91.10;;;;;;5011304;28;21040;-79
2021/05/05 07:05:27;;;;;;;1.50;1.10;;;10.10;91.10;;;;;;5006513;28;20494;-79
2021/05/05 07:07:53;;;;;;;1.50;1.10;;;10.10;90.60;;;;;;5008263;28;20567;-81
2021/05/05 07:10:20;;;;;;;1.50;1.10;;;10.00;89.70;;;;;;5004570;28;20468;-78
2021/05/05 07:12:46;;;;;;;1.50;1.10;;;10.00;89.40;;;;;;5013930;28;20480;-79
2021/05/05 07:15:13;;;;;;;1.47;1.00;;;9.90;89.60;;;;;;5010631;28;20527;-78
2021/05/05 07:17:40;;;;;;;1.50;1.10;;;9.90;89.40;;;;;;5012155;28;20566;-80
2021/05/05 07:20:07;;;;;;;1.50;1.10;;;9.80;89.40;;;;;;5004952;28;20464;-80
2021/05/05 07:22:34;;;;;;;1.50;1.10;;;9.70;90.20;;;;;;5014159;28;20495;-77
2021/05/05 07:25:01;;;;;;;1.50;1.07;;;9.60;90.40;;;;;;5005886;28;20488;-76
2021/05/05 07:27:27;;;;;;;1.50;1.10;;;9.50;90.50;;;;;;5009598;28;20487;-77
2021/05/05 07:29:53;;;;;;;1.50;1.10;;;9.40;90.90;;;;;;5002958;28;20492;-77
2021/05/05 07:32:20;;;;;;;1.50;1.10;;;9.30;91.20;;;;;;5012798;28;20483;-79
2021/05/05 07:34:46;;;;;;;1.50;1.30;;;9.20;91.70;;;;;;5017922;28;20563;-80
2021/05/05 07:37:13;;;;;;;1.50;1.10;;;9.10;92.00;;;;;;5007833;28;20487;-76
2021/05/05 07:40:08;;;;;;;1.50;1.07;;;9.10;92.80;;;;;;5006638;28;20453;-78
2021/05/05 07:45:34;;;;;;;1.50;1.10;;;9.00;92.40;;;;;;5008912;28;20538;-79
2021/05/05 07:48:05;;;;;;;1.50;1.10;;;8.90;92.60;;;;;;5004074;28;20479;-79
2021/05/05 07:50:31;;;;;;;1.50;1.10;;;8.90;93.00;;;;;;4999202;28;20469;-79
2021/05/05 07:52:58;;;;;;;1.50;1.10;;;8.90;93.40;;;;;;5014266;28;20506;-78
2021/05/05 07:55:25;;;;;;;1.50;1.10;;;8.80;95.70;;;;;;5009662;28;20488;-78
2021/05/05 07:57:52;;;;;;;1.50;1.10;;;8.50;97.40;;;;;;5014305;28;20550;-78
2021/05/05 08:00:20;;;;;;;1.50;1.10;;;8.40;98.10;;;;;;5006402;28;20468;-80
2021/05/05 08:02:46;;;;;;;1.50;1.17;;;8.30;98.20;;;;;;5014688;28;20951;-79
2021/05/05 08:05:13;;;;;;;1.50;1.10;;;8.30;98.20;;;;;;5006873;28;20483;-79
2021/05/05 08:07:39;;;;;;;1.50;1.10;;;8.30;98.20;;;;;;5006462;28;20506;-78
2021/05/05 08:10:07;;;;;;;1.50;1.20;;;8.30;98.20;;;;;;4999647;28;20512;-78
2021/05/05 08:12:34;;;;;;;1.50;1.10;;;8.40;98.20;;;;;;5008869;28;21068;-79
2021/05/05 08:15:01;;;;;;;1.50;1.10;;;8.50;98.20;;;;;;5012965;28;20484;-79
2021/05/05 08:17:28;;;;;;;1.50;1.10;;;8.60;98.20;;;;;;5012250;28;20486;-78
2021/05/05 08:19:54;;;;;;;1.53;1.20;;;8.90;98.20;;;;;;5004088;28;20461;-79
2021/05/05 08:22:21;;;;;;;1.50;1.20;;;9.10;98.20;;;;;;5008625;28;21250;-78
2021/05/05 08:24:47;;;;;;;1.50;1.07;;;9.30;97.60;;;;;;5008597;28;20492;-79
2021/05/05 08:27:13;;;;;;;1.50;1.10;;;9.50;97.20;;;;;;5011727;28;20978;-79
2021/05/05 08:29:40;;;;;;;1.50;1.10;;;9.80;96.90;;;;;;5010233;28;20460;-77
2021/05/05 08:32:07;;;;;;;1.50;1.10;;;10.00;95.10;;;;;;5004339;28;21103;-78
2021/05/05 08:34:33;;;;;;;1.50;1.00;;;10.00;94.30;;;;;;5014221;28;20567;-79
2021/05/05 08:37:00;;;;;;;1.50;1.07;;;10.10;94.50;;;;;;5007512;28;20994;-76
2021/05/05 08:39:27;;;;;;;1.50;1.10;;;10.00;94.10;;;;;;5011020;28;20468;-77
2021/05/05 08:41:54;;;;;;;1.50;1.00;;;9.90;93.10;;;;;;5005096;28;20484;-76
2021/05/05 08:44:21;;;;;;;1.50;1.10;;;9.80;93.80;;;;;;5018456;28;20492;-80
2021/05/05 08:46:48;;;;;;;1.50;1.10;;;10.00;95.00;;;;;;5008965;28;20486;-76
2021/05/05 08:49:16;;;;;;;1.50;1.10;;;10.30;94.20;;;;;;5012138;28;21038;-78
2021/05/05 08:51:43;;;;;;;1.50;1.10;;;10.50;93.40;;;;;;5002116;28;20480;-77
2021/05/05 08:54:10;;;;;;;1.50;1.10;;;10.80;92.00;;;;;;5017941;28;20855;-79
2021/05/05 08:56:37;;;;;;;1.60;1.10;;;11.10;91.60;;;;;;5001756;28;20503;-77
2021/05/05 08:59:04;;;;;;;1.50;1.00;;;11.50;91.20;;;;;;5012839;28;20464;-74
2021/05/05 09:01:32;;;;;;;1.50;1.00;;;11.70;89.50;;;;;;5007140;28;21037;-76
2021/05/05 09:03:59;;;;;;;1.50;1.00;;;11.90;89.40;;;;;;5014014;28;20490;-78
2021/05/05 09:06:46;;;;;;;1.50;1.00;;;12.00;87.30;;;;;;5005409;28;20491;-79
2021/05/05 09:09:29;;;;;;;1.50;1.00;;;12.00;88.00;;;;;;5013560;28;20788;-77
2021/05/05 09:11:55;;;;;;;1.50;1.00;;;12.20;86.50;;;;;;5003830;28;20495;-76
2021/05/05 09:14:22;;;;;;;1.50;0.93;;;12.40;86.30;;;;;;5010415;28;21008;-76
2021/05/05 09:16:48;;;;;;;1.50;0.97;;;12.40;85.20;;;;;;5002957;28;20487;-76
2021/05/05 09:19:16;;;;;;;1.50;1.00;;;12.40;85.30;;;;;;5018857;28;20468;-77
2021/05/05 09:21:44;;;;;;;1.50;1.00;;;12.30;85.10;;;;;;5003398;28;20488;-76
2021/05/05 09:24:25;;;;;;;1.50;0.93;;;12.30;85.40;;;;;;5017900;28;20480;-78
2021/05/05 09:26:53;;;;;;;1.50;1.00;;;12.40;85.20;;;;;;5001293;28;20483;-76
2021/05/05 09:29:20;;;;;;;1.50;0.90;;;12.50;83.70;;;;;;5007602;28;20470;-75
2021/05/05 09:31:47;;;;;;;1.50;1.00;;;12.60;84.20;;;;;;5004236;28;20593;-76
2021/05/05 09:34:13;;;;;;;1.50;1.00;;;12.50;83.00;;;;;;5012982;28;21028;-78
2021/05/05 09:36:56;;;;;;;1.50;1.10;;;12.50;84.50;;;;;;4999426;28;20488;-77
2021/05/05 09:39:27;;;;;;;1.50;0.90;;;12.60;83.50;;;;;;5008002;28;20537;-78
2021/05/05 09:41:54;;;;;;;1.50;1.00;;;12.90;83.40;;;;;;4988159;28;20507;-77
2021/05/05 09:44:21;;;;;;;1.50;1.00;;;13.20;82.30;;;;;;5009287;28;20849;-76
2021/05/05 09:46:50;;;;;;;1.50;1.00;;;13.40;81.60;;;;;;5007188;28;20485;-76
2021/05/05 09:49:32;;;;;;;1.47;0.90;;;13.40;80.10;;;;;;5008567;28;20471;-75
2021/05/05 09:52:03;;;;;;;1.50;1.00;;;13.20;79.80;;;;;;4998675;28;20922;-78
2021/05/05 09:54:32;;;;;;;1.50;1.00;;;13.00;80.40;;;;;;5005501;28;20480;-77
2021/05/05 09:57:14;;;;;;;1.50;1.00;;;13.00;80.70;;;;;;5005636;28;21034;-77
2021/05/05 10:00:02;;;;;;;1.50;1.00;;;12.90;80.00;;;;;;5002579;28;20551;-78
2021/05/05 10:02:30;;;;;;;1.50;1.00;;;12.90;80.60;;;;;;5004087;28;21013;-77
2021/05/05 10:04:57;;;;;;;1.40;0.90;;;13.10;80.80;;;;;;5008819;28;20868;-76
2021/05/05 10:07:25;;;;;;;1.50;0.90;;;13.30;79.30;;;;;;5012144;28;20524;-77
2021/05/05 10:09:51;;;;;;;1.50;1.00;;;13.30;78.10;;;;;;5010590;28;20855;-77
2021/05/05 10:12:20;;;;;;;1.50;1.00;;;13.30;78.80;;;;;;5009977;28;20883;-78
2021/05/05 10:14:49;;;;;;;1.50;1.00;;;13.40;78.40;;;;;;5010171;28;20510;-78
2021/05/05 10:17:16;;;;;;;1.50;0.90;;;13.50;77.50;;;;;;4998756;28;20949;-76
2021/05/05 10:19:44;;;;;;;1.50;1.00;;;13.50;78.40;;;;;;5000407;28;20492;-79
2021/05/05 10:22:12;;;;;;;1.50;1.10;;;13.60;78.60;;;;;;5000213;28;20479;-80
2021/05/05 10:24:45;;;;;;;1.50;1.00;;;13.50;78.10;;;;;;5009802;28;21023;-77
2021/05/05 10:27:13;;;;;;;1.50;1.00;;;13.40;77.30;;;;;;5009504;28;20494;-75
2021/05/05 10:29:40;;;;;;;1.50;1.00;;;13.30;77.90;;;;;;5008171;28;20809;-78
2021/05/05 10:32:11;;;;;;;1.50;0.90;;;13.10;77.60;;;;;;5007905;28;20487;-78
2021/05/05 10:34:39;;;;;;;1.50;1.00;;;12.90;78.70;;;;;;5014556;28;21038;-76
2021/05/05 10:37:08;;;;;;;1.50;1.00;;;12.80;79.00;;;;;;5005146;28;20566;-76
2021/05/05 10:39:40;;;;;;;1.47;1.00;;;12.70;79.40;;;;;;5009742;28;20472;-76
2021/05/05 10:42:16;;;;;;;1.50;1.00;;;12.60;79.00;;;;;;5008650;28;20492;-77
2021/05/05 10:44:46;;;;;;;1.50;1.00;;;12.60;79.10;;;;;;5007528;28;20491;-77
2021/05/05 10:47:23;;;;;;;1.50;1.10;;;12.50;79.10;;;;;;5001712;28;21009;-78
2021/05/05 10:50:14;;;;;;;1.50;1.00;;;12.50;78.80;;;;;;5006839;28;20471;-78
2021/05/05 10:53:00;;;;;;;1.50;1.00;;;12.40;78.80;;;;;;5009952;28;20498;-75
2021/05/05 10:55:53;;;;;;;1.50;1.00;;;12.40;77.80;;;;;;5005295;28;20477;-77
2021/05/05 10:58:24;;;;;;;1.60;1.10;;;12.50;78.20;;;;;;4995728;28;20547;-80
2021/05/05 11:00:55;;;;;;;1.47;1.00;;;12.70;78.40;;;;;;4993945;28;20487;-78
2021/05/05 11:03:55;;;;;;;1.50;1.10;;;12.90;78.30;;;;;;4999453;28;20531;-79
2021/05/05 11:06:57;;;;;;;1.40;0.90;;;13.10;78.50;;;;;;4990431;28;20587;-79
2021/05/05 11:09:46;;;;;;;1.50;1.00;;;13.50;78.40;;;;;;5018209;28;20817;-77
2021/05/05 11:12:46;;;;;;;1.50;0.90;;;13.70;77.10;;;;;;4993198;28;20879;-79
2021/05/05 11:15:14;;;;;;;1.50;1.00;;;13.50;74.80;;;;;;4985862;28;20725;-78
2021/05/05 11:17:40;;;;;;;1.50;1.00;;;13.40;75.60;;;;;;5013373;28;20498;-79
2021/05/05 11:20:08;;;;;;;1.40;0.90;;;13.40;75.40;;;;;;4990447;28;20463;-78
2021/05/05 11:22:48;;;;;;;1.50;1.00;;;13.50;75.80;;;;;;5006328;28;20544;-79
2021/05/05 11:25:27;;;;;;;1.47;1.00;;;13.60;74.70;;;;;;5013846;28;20488;-79
2021/05/05 11:27:57;;;;;;;1.50;1.00;;;13.70;74.90;;;;;;5016204;28;20482;-79
2021/05/05 11:30:42;;;;;;;1.47;0.90;;;13.70;75.90;;;;;;5013020;28;20479;-79
2021/05/05 11:33:11;;;;;;;1.50;1.00;;;13.70;75.90;;;;;;5011395;28;20479;-77
2021/05/05 11:35:39;;;;;;;1.50;0.97;;;13.90;75.90;;;;;;5012378;28;20480;-78
2021/05/05 11:38:21;;;;;;;1.50;1.00;;;13.90;75.50;;;;;;5013432;28;21065;-77
2021/05/05 11:41:01;;;;;;;1.50;1.00;;;13.90;74.40;;;;;;4995809;28;20524;-77
2021/05/05 11:43:31;;;;;;;1.50;0.90;;;13.80;74.70;;;;;;5010208;28;20492;-76
2021/05/05 11:46:02;;;;;;;1.50;1.00;;;13.70;74.80;;;;;;4997308;28;20495;-78
2021/05/05 11:48:32;;;;;;;1.50;1.00;;;13.40;75.30;;;;;;5020170;28;20978;-79
2021/05/05 11:50:59;;;;;;;1.50;1.00;;;13.00;77.20;;;;;;4993740;28;20526;-78
2021/05/05 11:53:36;;;;;;;2.93;2.70;;;12.70;78.20;;;;;;5022131;28;20990;-77
2021/05/05 11:56:14;;;;;;;1.43;0.93;;;12.60;78.20;;;;;;4996139;28;20475;-80
2021/05/05 11:58:41;;;;;;;1.40;0.90;;;12.60;77.70;;;;;;5020472;28;20518;-79
2021/05/05 12:01:08;;;;;;;1.50;0.90;;;12.90;78.40;;;;;;5000618;28;20487;-79
2021/05/05 12:03:34;;;;;;;1.47;1.00;;;13.30;77.70;;;;;;5016214;28;20468;-79
2021/05/05 12:06:00;;;;;;;1.50;0.97;;;13.60;77.10;;;;;;4998872;28;20484;-78
2021/05/05 12:08:28;;;;;;;1.50;1.00;;;13.90;76.40;;;;;;5019861;28;20465;-77
2021/05/05 12:10:57;;;;;;;1.47;0.90;;;14.00;75.50;;;;;;4989056;28;20568;-79
2021/05/05 12:13:24;;;;;;;1.50;0.90;;;14.10;75.60;;;;;;5022451;28;20469;-81
2021/05/05 12:15:59;;;;;;;1.50;0.90;;;14.00;76.00;;;;;;5001873;28;20484;-78
2021/05/05 12:18:30;;;;;;;1.40;0.90;;;13.90;76.10;;;;;;5012263;28;20958;-80
2021/05/05 12:21:03;;;;;;;1.43;1.00;;;13.80;76.00;;;;;;5005583;28;20475;-79
2021/05/05 12:23:38;;;;;;;1.50;1.00;;;13.50;75.40;;;;;;5023026;28;20494;-80
2021/05/05 12:26:15;;;;;;;1.50;1.00;;;13.30;75.20;;;;;;5008169;28;20567;-77
2021/05/05 12:28:42;;;;;;;1.50;1.00;;;13.20;76.40;;;;;;5024363;28;20546;-80
2021/05/05 12:31:11;;;;;;;1.50;1.00;;;12.90;77.60;;;;;;5007237;28;20512;-80
2021/05/05 12:33:41;;;;;;;1.50;1.00;;;12.70;79.40;;;;;;5031028;28;20460;-84
2021/05/05 12:36:10;;;;;;;1.50;1.00;;;12.70;79.60;;;;;;5005293;28;20665;-80
2021/05/05 12:38:39;;;;;;;1.50;0.90;;;12.50;79.80;;;;;;5002890;28;20510;-81
2021/05/05 12:41:07;;;;;;;1.43;1.00;;;12.30;80.50;;;;;;5002340;28;20479;-77
2021/05/05 12:43:34;;;;;;;1.47;0.90;;;12.00;81.80;;;;;;5012957;28;20464;-80
2021/05/05 12:46:03;;;;;;;1.50;1.00;;;11.70;81.60;;;;;;4999278;28;20555;-78
2021/05/05 12:48:35;;;;;;;1.50;1.00;;;11.40;84.70;;;;;;5024312;28;20499;-78
2021/05/05 12:51:07;;;;;;;1.50;1.00;;;11.20;86.70;;;;;;5006743;28;20459;-79
2021/05/05 12:53:49;;;;;;;1.47;1.00;;;11.10;86.70;;;;;;5013091;28;20511;-77
2021/05/05 12:56:15;;;;;;;1.50;1.00;;;11.40;87.70;;;;;;5000499;28;20786;-78
2021/05/05 12:58:44;;;;;;;1.50;1.00;;;11.70;85.80;;;;;;5020358;28;20984;-76
2021/05/05 13:01:12;;;;;;;1.50;0.97;;;12.10;84.60;;;;;;4998999;28;21001;-77
2021/05/05 13:03:43;;;;;;;1.50;0.90;;;12.70;84.60;;;;;;5007484;28;21043;-78